sensor_id;sensor_type;location;lat;lon;timestamp;P1;durP1;ratioP1;P2;durP2;ratioP2
74933;SDS011;63499;53.232;7.492;2023-04-06T11:15:19;16.65;;;9.85;;
74933;SDS011;63499;53.232;7.492;2023-04-06T11:17:46;17.20;;;9.13;;
74933;SDS011;63499;53.232;7.492;2023-04-06T11:20:12;14.23;;;9.07;;
74933;SDS011;63499;53.232;7.492;2023-04-06T11:22:51;17.13;;;8.15;;
74933;SDS011;63499;53.232;7.492;2023-04-06T11:25:18;11.70;;;8.32;;
74933;SDS011;63499;53.232;7.492;2023-04-06T11:27:45;15.40;;;8.38;;
74933;SDS011;63499;53.232;7.492;2023-04-06T11:30:12;13.93;;;9.55;;
74933;SDS011;63499;53.232;7.492;2023-04-06T11:32:43;15.70;;;10.80;;
74933;SDS011;63499;53.232;7.492;2023-04-06T11:35:20;14.40;;;9.38;;
74933;SDS011;63499;53.232;7.492;2023-04-06T11:37:51;14.15;;;8.55;;
74933;SDS011;63499;53.232;7.492;2023-04-06T11:40:21;12.68;;;9.23;;
74933;SDS011;63499;53.232;7.492;2023-04-06T11:42:53;12.65;;;8.50;;
74933;SDS011;63499;53.232;7.492;2023-04-06T11:45:20;17.05;;;9.52;;
74933;SDS011;63499;53.232;7.492;2023-04-06T11:47:58;12.85;;;9.80;;
74933;SDS011;63499;53.232;7.492;2023-04-06T11:50:25;11.77;;;8.30;;
74933;SDS011;63499;53.232;7.492;2023-04-06T11:52:59;15.27;;;8.52;;
74933;SDS011;63499;53.232;7.492;2023-04-06T11:55:27;17.92;;;10.30;;
74933;SDS011;63499;53.232;7.492;2023-04-06T11:57:53;13.75;;;9.35;;
74933;SDS011;63499;53.232;7.492;2023-04-06T12:00:20;12.25;;;8.90;;
74933;SDS011;63499;53.232;7.492;2023-04-06T12:02:48;16.02;;;9.70;;
74933;SDS011;63499;53.232;7.492;2023-04-06T12:05:15;14.10;;;8.75;;
74933;SDS011;63499;53.232;7.492;2023-04-06T12:07:41;15.13;;;9.98;;
74933;SDS011;63499;53.232;7.492;2023-04-06T12:10:07;14.32;;;9.18;;
74933;SDS011;63499;53.232;7.492;2023-04-06T12:12:34;14.55;;;9.05;;
74933;SDS011;63499;53.232;7.492;2023-04-06T12:15:00;14.60;;;10.43;;
74933;SDS011;63499;53.232;7.492;2023-04-06T12:17:27;12.68;;;8.55;;
74933;SDS011;63499;53.232;7.492;2023-04-06T12:19:53;14.48;;;9.90;;
74933;SDS011;63499;53.232;7.492;2023-04-06T12:22:22;12.60;;;8.93;;
74933;SDS011;63499;53.232;7.492;2023-04-06T12:24:48;10.68;;;8.50;;
74933;SDS011;63499;53.232;7.492;2023-04-06T12:27:15;12.23;;;8.27;;
74933;SDS011;63499;53.232;7.492;2023-04-06T12:29:42;11.75;;;8.93;;
74933;SDS011;63499;53.232;7.492;2023-04-06T12:32:08;16.27;;;10.15;;
74933;SDS011;63499;53.232;7.492;2023-04-06T12:34:34;12.73;;;8.48;;
74933;SDS011;63499;53.232;7.492;2023-04-06T12:37:00;17.75;;;9.95;;
74933;SDS011;63499;53.232;7.492;2023-04-06T12:39:27;13.70;;;9.40;;
74933;SDS011;63499;53.232;7.492;2023-04-06T12:41:53;12.30;;;8.48;;
74933;SDS011;63499;53.232;7.492;2023-04-06T12:44:21;11.98;;;9.02;;
74933;SDS011;63499;53.232;7.492;2023-04-06T12:46:48;16.60;;;9.63;;
74933;SDS011;63499;53.232;7.492;2023-04-06T12:49:15;35.28;;;9.60;;
74933;SDS011;63499;53.232;7.492;2023-04-06T12:51:44;15.48;;;9.60;;
74933;SDS011;63499;53.232;7.492;2023-04-06T12:54:11;13.55;;;8.63;;
74933;SDS011;63499;53.232;7.492;2023-04-06T12:56:37;15.02;;;8.88;;
74933;SDS011;63499;53.232;7.492;2023-04-06T12:59:03;13.07;;;8.05;;
74933;SDS011;63499;53.232;7.492;2023-04-06T13:01:30;11.73;;;8.63;;
74933;SDS011;63499;53.232;7.492;2023-04-06T13:03:56;14.07;;;8.02;;
74933;SDS011;63499;53.232;7.492;2023-04-06T13:06:24;12.90;;;9.60;;
74933;SDS011;63499;53.232;7.492;2023-04-06T13:08:54;13.77;;;9.40;;
74933;SDS011;63499;53.232;7.492;2023-04-06T13:11:20;12.43;;;9.50;;
74933;SDS011;63499;53.232;7.492;2023-04-06T13:13:49;12.48;;;9.10;;
74933;SDS011;63499;53.232;7.492;2023-04-06T13:16:15;14.50;;;9.23;;
74933;SDS011;63499;53.232;7.492;2023-04-06T13:18:42;15.05;;;8.60;;
74933;SDS011;63499;53.232;7.492;2023-04-06T13:21:08;15.18;;;9.15;;
74933;SDS011;63499;53.232;7.492;2023-04-06T13:23:39;10.65;;;7.97;;
74933;SDS011;63499;53.232;7.492;2023-04-06T13:26:08;14.93;;;10.13;;
74933;SDS011;63499;53.232;7.492;2023-04-06T13:28:37;11.60;;;8.75;;
74933;SDS011;63499;53.232;7.492;2023-04-06T13:31:06;18.67;;;9.55;;
74933;SDS011;63499;53.232;7.492;2023-04-06T13:33:33;15.30;;;9.32;;
74933;SDS011;63499;53.232;7.492;2023-04-06T13:36:00;12.52;;;8.60;;
74933;SDS011;63499;53.232;7.492;2023-04-06T13:38:27;17.63;;;9.48;;
74933;SDS011;63499;53.232;7.492;2023-04-06T13:40:53;14.15;;;9.32;;
74933;SDS011;63499;53.232;7.492;2023-04-06T13:43:20;16.92;;;10.70;;
74933;SDS011;63499;53.232;7.492;2023-04-06T13:45:50;25.30;;;12.88;;
74933;SDS011;63499;53.232;7.492;2023-04-06T13:48:17;18.30;;;10.98;;
74933;SDS011;63499;53.232;7.492;2023-04-06T13:50:44;12.82;;;8.80;;
74933;SDS011;63499;53.232;7.492;2023-04-06T13:53:11;15.27;;;10.48;;
74933;SDS011;63499;53.232;7.492;2023-04-06T13:55:37;15.70;;;11.05;;
74933;SDS011;63499;53.232;7.492;2023-04-06T13:58:04;17.40;;;10.50;;
74933;SDS011;63499;53.232;7.492;2023-04-06T14:00:30;18.45;;;10.25;;
74933;SDS011;63499;53.232;7.492;2023-04-06T14:02:56;17.48;;;10.15;;
74933;SDS011;63499;53.232;7.492;2023-04-06T14:05:22;18.92;;;10.18;;
74933;SDS011;63499;53.232;7.492;2023-04-06T14:07:49;15.90;;;10.93;;
74933;SDS011;63499;53.232;7.492;2023-04-06T14:10:16;18.27;;;11.32;;
74933;SDS011;63499;53.232;7.492;2023-04-06T14:12:45;17.30;;;11.45;;
74933;SDS011;63499;53.232;7.492;2023-04-06T14:15:12;15.75;;;10.77;;
74933;SDS011;63499;53.232;7.492;2023-04-06T14:17:38;15.90;;;10.75;;
74933;SDS011;63499;53.232;7.492;2023-04-06T14:20:05;16.33;;;10.85;;
74933;SDS011;63499;53.232;7.492;2023-04-06T14:22:32;16.92;;;11.00;;
74933;SDS011;63499;53.232;7.492;2023-04-06T14:24:58;15.93;;;11.32;;
74933;SDS011;63499;53.232;7.492;2023-04-06T14:27:27;17.70;;;11.90;;
74933;SDS011;63499;53.232;7.492;2023-04-06T14:29:53;19.25;;;12.00;;
74933;SDS011;63499;53.232;7.492;2023-04-06T14:32:20;18.33;;;12.75;;
74933;SDS011;63499;53.232;7.492;2023-04-06T14:34:48;19.20;;;12.07;;
74933;SDS011;63499;53.232;7.492;2023-04-06T14:37:15;14.85;;;10.88;;
74933;SDS011;63499;53.232;7.492;2023-04-06T14:39:43;18.02;;;11.52;;
74933;SDS011;63499;53.232;7.492;2023-04-06T14:42:09;17.10;;;11.82;;
74933;SDS011;63499;53.232;7.492;2023-04-06T14:44:35;17.10;;;11.65;;
74933;SDS011;63499;53.232;7.492;2023-04-06T14:47:02;17.08;;;11.95;;
74933;SDS011;63499;53.232;7.492;2023-04-06T14:49:32;16.02;;;10.88;;
74933;SDS011;63499;53.232;7.492;2023-04-06T14:51:58;16.25;;;11.15;;
74933;SDS011;63499;53.232;7.492;2023-04-06T14:54:25;17.98;;;11.63;;
74933;SDS011;63499;53.232;7.492;2023-04-06T14:56:51;18.58;;;12.77;;
74933;SDS011;63499;53.232;7.492;2023-04-06T14:59:17;16.75;;;11.02;;
74933;SDS011;63499;53.232;7.492;2023-04-06T15:01:43;21.38;;;12.88;;
74933;SDS011;63499;53.232;7.492;2023-04-06T15:04:10;18.15;;;12.23;;
74933;SDS011;63499;53.232;7.492;2023-04-06T15:06:37;19.60;;;12.07;;
74933;SDS011;63499;53.232;7.492;2023-04-06T15:09:03;18.50;;;11.43;;
74933;SDS011;63499;53.232;7.492;2023-04-06T15:11:32;16.90;;;10.77;;
74933;SDS011;63499;53.232;7.492;2023-04-06T15:13:59;17.00;;;12.15;;
74933;SDS011;63499;53.232;7.492;2023-04-06T15:16:26;17.08;;;11.20;;
74933;SDS011;63499;53.232;7.492;2023-04-06T15:18:52;19.23;;;11.93;;
74933;SDS011;63499;53.232;7.492;2023-04-06T15:21:19;19.20;;;12.52;;
74933;SDS011;63499;53.232;7.492;2023-04-06T15:23:45;20.58;;;13.35;;
74933;SDS011;63499;53.232;7.492;2023-04-06T15:26:12;16.35;;;11.23;;
74933;SDS011;63499;53.232;7.492;2023-04-06T15:28:38;17.05;;;11.75;;
74933;SDS011;63499;53.232;7.492;2023-04-06T15:31:12;18.05;;;12.57;;
74933;SDS011;63499;53.232;7.492;2023-04-06T15:33:42;20.13;;;12.65;;
74933;SDS011;63499;53.232;7.492;2023-04-06T15:36:22;16.63;;;12.80;;
74933;SDS011;63499;53.232;7.492;2023-04-06T15:38:54;17.83;;;14.02;;
74933;SDS011;63499;53.232;7.492;2023-04-06T15:41:21;18.65;;;13.10;;
74933;SDS011;63499;53.232;7.492;2023-04-06T15:43:48;19.30;;;14.52;;
74933;SDS011;63499;53.232;7.492;2023-04-06T15:46:17;18.00;;;13.00;;
74933;SDS011;63499;53.232;7.492;2023-04-06T15:48:47;15.75;;;12.50;;
74933;SDS011;63499;53.232;7.492;2023-04-06T15:51:13;18.58;;;12.75;;
74933;SDS011;63499;53.232;7.492;2023-04-06T15:53:41;20.40;;;13.88;;
74933;SDS011;63499;53.232;7.492;2023-04-06T15:56:07;19.20;;;13.32;;
74933;SDS011;63499;53.232;7.492;2023-04-06T15:58:34;18.52;;;13.63;;
74933;SDS011;63499;53.232;7.492;2023-04-06T16:01:01;21.60;;;14.43;;
74933;SDS011;63499;53.232;7.492;2023-04-06T16:03:39;21.88;;;14.93;;
74933;SDS011;63499;53.232;7.492;2023-04-06T16:06:07;22.83;;;14.20;;
74933;SDS011;63499;53.232;7.492;2023-04-06T16:08:34;20.30;;;13.45;;
74933;SDS011;63499;53.232;7.492;2023-04-06T16:11:01;18.60;;;12.50;;
74933;SDS011;63499;53.232;7.492;2023-04-06T16:13:27;21.85;;;14.05;;
74933;SDS011;63499;53.232;7.492;2023-04-06T16:15:53;23.23;;;14.60;;
74933;SDS011;63499;53.232;7.492;2023-04-06T16:18:20;21.48;;;14.32;;
74933;SDS011;63499;53.232;7.492;2023-04-06T16:20:46;25.67;;;16.65;;
74933;SDS011;63499;53.232;7.492;2023-04-06T16:23:14;23.45;;;15.73;;
74933;SDS011;63499;53.232;7.492;2023-04-06T16:25:40;28.35;;;14.13;;
74933;SDS011;63499;53.232;7.492;2023-04-06T16:28:06;22.35;;;14.93;;
74933;SDS011;63499;53.232;7.492;2023-04-06T16:30:36;23.65;;;15.50;;
74933;SDS011;63499;53.232;7.492;2023-04-06T16:33:03;26.35;;;15.13;;
74933;SDS011;63499;53.232;7.492;2023-04-06T16:35:30;22.17;;;15.63;;
74933;SDS011;63499;53.232;7.492;2023-04-06T16:37:58;19.10;;;13.07;;
74933;SDS011;63499;53.232;7.492;2023-04-06T16:40:25;21.48;;;14.20;;
74933;SDS011;63499;53.232;7.492;2023-04-06T16:42:52;26.35;;;16.00;;
74933;SDS011;63499;53.232;7.492;2023-04-06T16:45:22;25.35;;;16.15;;
74933;SDS011;63499;53.232;7.492;2023-04-06T16:47:48;23.70;;;15.50;;
74933;SDS011;63499;53.232;7.492;2023-04-06T16:50:14;23.48;;;14.93;;
74933;SDS011;63499;53.232;7.492;2023-04-06T16:52:41;21.90;;;14.35;;
74933;SDS011;63499;53.232;7.492;2023-04-06T16:55:07;21.65;;;13.82;;
74933;SDS011;63499;53.232;7.492;2023-04-06T16:57:34;19.05;;;13.02;;
74933;SDS011;63499;53.232;7.492;2023-04-06T17:00:00;21.85;;;14.82;;
74933;SDS011;63499;53.232;7.492;2023-04-06T17:02:27;25.15;;;15.27;;
74933;SDS011;63499;53.232;7.492;2023-04-06T17:04:55;25.23;;;16.23;;
74933;SDS011;63499;53.232;7.492;2023-04-06T17:07:22;24.73;;;15.60;;
74933;SDS011;63499;53.232;7.492;2023-04-06T17:09:55;24.05;;;15.27;;
74933;SDS011;63499;53.232;7.492;2023-04-06T17:12:22;23.88;;;16.35;;
74933;SDS011;63499;53.232;7.492;2023-04-06T17:14:48;27.10;;;16.52;;
74933;SDS011;63499;53.232;7.492;2023-04-06T17:17:15;28.75;;;18.33;;
74933;SDS011;63499;53.232;7.492;2023-04-06T17:19:42;21.70;;;15.40;;
74933;SDS011;63499;53.232;7.492;2023-04-06T17:22:09;22.23;;;15.10;;
74933;SDS011;63499;53.232;7.492;2023-04-06T17:24:35;20.83;;;13.55;;
74933;SDS011;63499;53.232;7.492;2023-04-06T17:27:02;24.02;;;14.77;;
74933;SDS011;63499;53.232;7.492;2023-04-06T17:29:29;22.45;;;14.60;;
74933;SDS011;63499;53.232;7.492;2023-04-06T17:31:55;28.83;;;16.52;;
74933;SDS011;63499;53.232;7.492;2023-04-06T17:34:22;25.48;;;14.95;;
74933;SDS011;63499;53.232;7.492;2023-04-06T17:36:49;19.45;;;13.82;;
74933;SDS011;63499;53.232;7.492;2023-04-06T17:39:15;22.75;;;15.07;;
74933;SDS011;63499;53.232;7.492;2023-04-06T17:41:43;21.02;;;15.23;;
74933;SDS011;63499;53.232;7.492;2023-04-06T17:44:10;29.20;;;15.52;;
74933;SDS011;63499;53.232;7.492;2023-04-06T17:46:36;24.25;;;17.13;;
74933;SDS011;63499;53.232;7.492;2023-04-06T17:49:06;25.65;;;16.42;;
74933;SDS011;63499;53.232;7.492;2023-04-06T17:51:33;21.50;;;14.90;;
74933;SDS011;63499;53.232;7.492;2023-04-06T17:54:03;24.40;;;14.65;;
74933;SDS011;63499;53.232;7.492;2023-04-06T17:56:30;22.48;;;15.45;;
74933;SDS011;63499;53.232;7.492;2023-04-06T17:58:57;24.95;;;15.52;;
74933;SDS011;63499;53.232;7.492;2023-04-06T18:01:24;24.38;;;14.48;;
74933;SDS011;63499;53.232;7.492;2023-04-06T18:03:50;22.23;;;14.13;;
74933;SDS011;63499;53.232;7.492;2023-04-06T18:06:18;18.90;;;12.32;;
74933;SDS011;63499;53.232;7.492;2023-04-06T18:08:45;17.15;;;11.75;;
74933;SDS011;63499;53.232;7.492;2023-04-06T18:11:16;21.05;;;12.80;;
74933;SDS011;63499;53.232;7.492;2023-04-06T18:13:43;18.42;;;12.15;;
74933;SDS011;63499;53.232;7.492;2023-04-06T18:16:10;18.65;;;11.88;;
74933;SDS011;63499;53.232;7.492;2023-04-06T18:18:36;17.90;;;12.55;;
74933;SDS011;63499;53.232;7.492;2023-04-06T18:21:05;21.33;;;12.77;;
74933;SDS011;63499;53.232;7.492;2023-04-06T18:23:32;20.88;;;11.98;;
74933;SDS011;63499;53.232;7.492;2023-04-06T18:26:01;18.33;;;11.70;;
74933;SDS011;63499;53.232;7.492;2023-04-06T18:28:29;16.80;;;11.43;;
74933;SDS011;63499;53.232;7.492;2023-04-06T18:30:57;19.23;;;11.73;;
74933;SDS011;63499;53.232;7.492;2023-04-06T18:33:24;19.65;;;12.10;;
74933;SDS011;63499;53.232;7.492;2023-04-06T18:35:52;19.33;;;12.63;;
74933;SDS011;63499;53.232;7.492;2023-04-06T18:38:21;19.52;;;12.48;;
74933;SDS011;63499;53.232;7.492;2023-04-06T18:40:48;21.50;;;13.13;;
74933;SDS011;63499;53.232;7.492;2023-04-06T18:43:15;18.52;;;11.52;;
74933;SDS011;63499;53.232;7.492;2023-04-06T18:45:42;21.80;;;11.77;;
74933;SDS011;63499;53.232;7.492;2023-04-06T18:48:11;20.05;;;12.60;;
74933;SDS011;63499;53.232;7.492;2023-04-06T18:50:38;18.52;;;12.23;;
74933;SDS011;63499;53.232;7.492;2023-04-06T18:53:05;18.92;;;13.38;;
74933;SDS011;63499;53.232;7.492;2023-04-06T18:55:32;16.23;;;12.23;;
74933;SDS011;63499;53.232;7.492;2023-04-06T18:57:59;17.95;;;11.68;;
74933;SDS011;63499;53.232;7.492;2023-04-06T19:00:26;18.00;;;12.32;;
74933;SDS011;63499;53.232;7.492;2023-04-06T19:02:53;20.15;;;12.45;;
74933;SDS011;63499;53.232;7.492;2023-04-06T19:05:19;17.45;;;11.75;;
74933;SDS011;63499;53.232;7.492;2023-04-06T19:07:47;18.52;;;11.70;;
74933;SDS011;63499;53.232;7.492;2023-04-06T19:10:16;18.52;;;12.43;;
74933;SDS011;63499;53.232;7.492;2023-04-06T19:12:43;21.35;;;12.32;;
74933;SDS011;63499;53.232;7.492;2023-04-06T19:15:11;17.88;;;11.80;;
74933;SDS011;63499;53.232;7.492;2023-04-06T19:17:38;17.42;;;11.90;;
74933;SDS011;63499;53.232;7.492;2023-04-06T19:20:07;18.88;;;12.43;;
74933;SDS011;63499;53.232;7.492;2023-04-06T19:22:35;20.02;;;13.07;;
74933;SDS011;63499;53.232;7.492;2023-04-06T19:25:02;23.63;;;13.40;;
74933;SDS011;63499;53.232;7.492;2023-04-06T19:27:29;24.85;;;13.77;;
74933;SDS011;63499;53.232;7.492;2023-04-06T19:29:56;24.77;;;14.55;;
74933;SDS011;63499;53.232;7.492;2023-04-06T19:32:24;20.95;;;13.50;;
74933;SDS011;63499;53.232;7.492;2023-04-06T19:34:52;19.48;;;12.52;;
74933;SDS011;63499;53.232;7.492;2023-04-06T19:37:19;22.27;;;13.25;;
74933;SDS011;63499;53.232;7.492;2023-04-06T19:39:45;23.48;;;14.23;;
74933;SDS011;63499;53.232;7.492;2023-04-06T19:42:12;22.02;;;14.02;;
74933;SDS011;63499;53.232;7.492;2023-04-06T19:44:46;21.85;;;13.25;;
74933;SDS011;63499;53.232;7.492;2023-04-06T19:47:15;20.80;;;12.80;;
74933;SDS011;63499;53.232;7.492;2023-04-06T19:49:43;21.67;;;12.45;;
74933;SDS011;63499;53.232;7.492;2023-04-06T19:52:10;22.27;;;14.05;;
74933;SDS011;63499;53.232;7.492;2023-04-06T19:54:38;20.98;;;14.40;;
74933;SDS011;63499;53.232;7.492;2023-04-06T19:57:05;25.25;;;15.15;;
74933;SDS011;63499;53.232;7.492;2023-04-06T19:59:31;24.25;;;15.50;;
74933;SDS011;63499;53.232;7.492;2023-04-06T20:02:01;22.75;;;15.60;;
74933;SDS011;63499;53.232;7.492;2023-04-06T20:04:28;22.83;;;14.77;;
74933;SDS011;63499;53.232;7.492;2023-04-06T20:06:55;24.27;;;15.63;;
74933;SDS011;63499;53.232;7.492;2023-04-06T20:09:22;27.05;;;15.43;;
74933;SDS011;63499;53.232;7.492;2023-04-06T20:11:49;28.15;;;15.50;;
74933;SDS011;63499;53.232;7.492;2023-04-06T20:14:16;27.48;;;16.40;;
74933;SDS011;63499;53.232;7.492;2023-04-06T20:16:43;24.83;;;16.20;;
74933;SDS011;63499;53.232;7.492;2023-04-06T20:19:10;27.95;;;17.30;;
74933;SDS011;63499;53.232;7.492;2023-04-06T20:21:37;24.33;;;15.77;;
74933;SDS011;63499;53.232;7.492;2023-04-06T20:24:04;28.27;;;16.20;;
74933;SDS011;63499;53.232;7.492;2023-04-06T20:26:31;29.23;;;17.40;;
74933;SDS011;63499;53.232;7.492;2023-04-06T20:28:58;28.77;;;17.63;;
74933;SDS011;63499;53.232;7.492;2023-04-06T20:31:25;26.52;;;17.15;;
74933;SDS011;63499;53.232;7.492;2023-04-06T20:33:52;25.20;;;15.85;;
74933;SDS011;63499;53.232;7.492;2023-04-06T20:38:45;28.23;;;19.58;;
